sensor_id;sensor_type;location;lat;lon;timestamp;temperature;humidity
71839;SHT31;59687;37.520;15.068;2022-10-31T00:01:31;16.75;70.86
71839;SHT31;59687;37.520;15.068;2022-10-31T00:04:01;16.75;70.83
71839;SHT31;59687;37.520;15.068;2022-10-31T00:06:28;16.72;70.62
71839;SHT31;59687;37.520;15.068;2022-10-31T00:09:00;16.72;70.44
71839;SHT31;59687;37.520;15.068;2022-10-31T00:11:28;16.75;70.12
71839;SHT31;59687;37.520;15.068;2022-10-31T00:13:57;16.77;69.97
71839;SHT31;59687;37.520;15.068;2022-10-31T00:16:28;16.75;69.73
71839;SHT31;59687;37.520;15.068;2022-10-31T00:19:00;16.74;69.67
71839;SHT31;59687;37.520;15.068;2022-10-31T00:21:29;16.72;69.30
71839;SHT31;59687;37.520;15.068;2022-10-31T00:23:59;16.69;69.12
71839;SHT31;59687;37.520;15.068;2022-10-31T00:26:28;16.68;68.88
71839;SHT31;59687;37.520;15.068;2022-10-31T00:28:59;16.65;68.60
71839;SHT31;59687;37.520;15.068;2022-10-31T00:31:26;16.65;68.27
71839;SHT31;59687;37.520;15.068;2022-10-31T00:33:54;16.69;68.19
71839;SHT31;59687;37.520;15.068;2022-10-31T00:36:21;16.71;67.74
71839;SHT31;59687;37.520;15.068;2022-10-31T00:38:48;16.72;67.80
71839;SHT31;59687;37.520;15.068;2022-10-31T00:41:18;16.69;67.82
71839;SHT31;59687;37.520;15.068;2022-10-31T00:43:46;16.68;68.06
71839;SHT31;59687;37.520;15.068;2022-10-31T00:46:13;16.67;68.13
71839;SHT31;59687;37.520;15.068;2022-10-31T00:48:41;16.65;68.04
71839;SHT31;59687;37.520;15.068;2022-10-31T00:51:08;16.58;68.05
71839;SHT31;59687;37.520;15.068;2022-10-31T00:53:35;16.56;68.38
71839;SHT31;59687;37.520;15.068;2022-10-31T00:56:03;16.47;68.46
71839;SHT31;59687;37.520;15.068;2022-10-31T00:58:31;16.39;68.78
71839;SHT31;59687;37.520;15.068;2022-10-31T01:00:59;16.33;68.78
71839;SHT31;59687;37.520;15.068;2022-10-31T01:03:30;16.30;69.17
71839;SHT31;59687;37.520;15.068;2022-10-31T01:06:06;16.24;69.17
71839;SHT31;59687;37.520;15.068;2022-10-31T01:08:35;16.16;69.24
71839;SHT31;59687;37.520;15.068;2022-10-31T01:11:15;16.10;69.12
71839;SHT31;59687;37.520;15.068;2022-10-31T01:13:46;16.09;68.92
71839;SHT31;59687;37.520;15.068;2022-10-31T01:16:16;16.13;68.66
71839;SHT31;59687;37.520;15.068;2022-10-31T01:18:43;16.10;67.86
71839;SHT31;59687;37.520;15.068;2022-10-31T01:21:13;16.12;67.26
71839;SHT31;59687;37.520;15.068;2022-10-31T01:23:42;16.17;66.80
71839;SHT31;59687;37.520;15.068;2022-10-31T01:26:21;16.17;66.42
71839;SHT31;59687;37.520;15.068;2022-10-31T01:28:52;16.15;65.52
71839;SHT31;59687;37.520;15.068;2022-10-31T01:31:22;16.10;64.44
71839;SHT31;59687;37.520;15.068;2022-10-31T01:33:49;16.04;63.43
71839;SHT31;59687;37.520;15.068;2022-10-31T01:38:56;15.97;62.23
71839;SHT31;59687;37.520;15.068;2022-10-31T01:41:27;15.94;61.84
71839;SHT31;59687;37.520;15.068;2022-10-31T01:47:17;15.91;61.70
71839;SHT31;59687;37.520;15.068;2022-10-31T01:49:54;15.87;61.52
71839;SHT31;59687;37.520;15.068;2022-10-31T01:54:55;15.82;61.39
71839;SHT31;59687;37.520;15.068;2022-10-31T01:57:24;15.81;61.27
71839;SHT31;59687;37.520;15.068;2022-10-31T01:59:56;15.80;61.48
71839;SHT31;59687;37.520;15.068;2022-10-31T02:02:27;15.78;61.34
71839;SHT31;59687;37.520;15.068;2022-10-31T02:04:56;15.80;61.30
71839;SHT31;59687;37.520;15.068;2022-10-31T02:07:31;15.78;61.31
71839;SHT31;59687;37.520;15.068;2022-10-31T02:10:02;15.72;61.24
71839;SHT31;59687;37.520;15.068;2022-10-31T02:12:31;15.71;61.54
71839;SHT31;59687;37.520;15.068;2022-10-31T02:15:00;15.72;61.59
71839;SHT31;59687;37.520;15.068;2022-10-31T02:17:31;15.70;61.72
71839;SHT31;59687;37.520;15.068;2022-10-31T02:20:28;15.84;61.33
71839;SHT31;59687;37.520;15.068;2022-10-31T02:23:29;15.91;61.20
71839;SHT31;59687;37.520;15.068;2022-10-31T02:31:53;15.91;60.96
71839;SHT31;59687;37.520;15.068;2022-10-31T02:40:35;15.84;60.79
71839;SHT31;59687;37.520;15.068;2022-10-31T02:47:23;15.91;60.93
71839;SHT31;59687;37.520;15.068;2022-10-31T02:50:07;15.94;61.10
71839;SHT31;59687;37.520;15.068;2022-10-31T02:52:38;15.95;60.69
71839;SHT31;59687;37.520;15.068;2022-10-31T02:56:00;15.94;60.17
71839;SHT31;59687;37.520;15.068;2022-10-31T02:58:08;15.94;59.26
71839;SHT31;59687;37.520;15.068;2022-10-31T03:00:48;15.92;59.08
71839;SHT31;59687;37.520;15.068;2022-10-31T03:11:45;15.75;57.87
71839;SHT31;59687;37.520;15.068;2022-10-31T03:14:29;15.91;58.82
71839;SHT31;59687;37.520;15.068;2022-10-31T03:17:03;15.92;58.73
71839;SHT31;59687;37.520;15.068;2022-10-31T03:19:36;15.95;57.93
71839;SHT31;59687;37.520;15.068;2022-10-31T03:22:15;15.89;56.91
71839;SHT31;59687;37.520;15.068;2022-10-31T03:24:49;15.80;55.65
71839;SHT31;59687;37.520;15.068;2022-10-31T03:27:23;15.68;55.20
71839;SHT31;59687;37.520;15.068;2022-10-31T03:29:55;15.61;54.85
71839;SHT31;59687;37.520;15.068;2022-10-31T03:32:27;15.57;55.01
71839;SHT31;59687;37.520;15.068;2022-10-31T03:34:59;15.54;54.83
71839;SHT31;59687;37.520;15.068;2022-10-31T03:37:29;15.49;54.92
71839;SHT31;59687;37.520;15.068;2022-10-31T03:39:59;15.43;55.31
71839;SHT31;59687;37.520;15.068;2022-10-31T03:42:31;15.40;54.63
71839;SHT31;59687;37.520;15.068;2022-10-31T03:47:33;15.30;55.25
71839;SHT31;59687;37.520;15.068;2022-10-31T03:50:03;15.27;55.65
71839;SHT31;59687;37.520;15.068;2022-10-31T03:52:47;15.29;55.56
71839;SHT31;59687;37.520;15.068;2022-10-31T03:55:26;15.22;56.17
71839;SHT31;59687;37.520;15.068;2022-10-31T03:58:19;15.15;56.14
71839;SHT31;59687;37.520;15.068;2022-10-31T04:00:50;15.11;56.33
71839;SHT31;59687;37.520;15.068;2022-10-31T04:03:31;15.08;56.19
71839;SHT31;59687;37.520;15.068;2022-10-31T04:06:05;15.03;56.29
71839;SHT31;59687;37.520;15.068;2022-10-31T04:08:44;15.01;56.01
71839;SHT31;59687;37.520;15.068;2022-10-31T04:11:18;14.98;56.14
71839;SHT31;59687;37.520;15.068;2022-10-31T04:13:57;14.92;56.12
71839;SHT31;59687;37.520;15.068;2022-10-31T04:16:26;14.85;56.32
71839;SHT31;59687;37.520;15.068;2022-10-31T04:18:54;14.81;56.04
71839;SHT31;59687;37.520;15.068;2022-10-31T04:21:28;14.81;55.71
71839;SHT31;59687;37.520;15.068;2022-10-31T04:23:57;14.78;55.96
71839;SHT31;59687;37.520;15.068;2022-10-31T04:26:29;14.77;55.80
71839;SHT31;59687;37.520;15.068;2022-10-31T04:28:59;14.75;55.77
71839;SHT31;59687;37.520;15.068;2022-10-31T04:31:28;14.71;55.95
71839;SHT31;59687;37.520;15.068;2022-10-31T04:33:56;14.67;56.29
71839;SHT31;59687;37.520;15.068;2022-10-31T04:36:23;14.68;56.17
71839;SHT31;59687;37.520;15.068;2022-10-31T04:38:53;14.67;56.42
71839;SHT31;59687;37.520;15.068;2022-10-31T04:41:46;14.63;56.43
71839;SHT31;59687;37.520;15.068;2022-10-31T04:44:17;14.63;56.35
71839;SHT31;59687;37.520;15.068;2022-10-31T04:46:48;14.63;56.79
71839;SHT31;59687;37.520;15.068;2022-10-31T04:49:16;14.64;56.72
71839;SHT31;59687;37.520;15.068;2022-10-31T04:51:44;14.59;56.80
71839;SHT31;59687;37.520;15.068;2022-10-31T04:54:12;14.59;56.92
71839;SHT31;59687;37.520;15.068;2022-10-31T04:56:53;14.61;56.67
71839;SHT31;59687;37.520;15.068;2022-10-31T04:59:22;14.57;56.62
71839;SHT31;59687;37.520;15.068;2022-10-31T05:01:52;14.57;56.48
71839;SHT31;59687;37.520;15.068;2022-10-31T05:04:38;14.63;56.23
71839;SHT31;59687;37.520;15.068;2022-10-31T05:07:06;14.59;55.76
71839;SHT31;59687;37.520;15.068;2022-10-31T05:09:34;14.63;55.37
71839;SHT31;59687;37.520;15.068;2022-10-31T05:12:01;14.59;55.50
71839;SHT31;59687;37.520;15.068;2022-10-31T05:14:50;14.64;55.19
71839;SHT31;59687;37.520;15.068;2022-10-31T05:17:40;14.61;55.53
71839;SHT31;59687;37.520;15.068;2022-10-31T05:20:33;14.66;55.57
71839;SHT31;59687;37.520;15.068;2022-10-31T05:23:10;14.67;55.79
71839;SHT31;59687;37.520;15.068;2022-10-31T05:25:41;14.70;56.11
71839;SHT31;59687;37.520;15.068;2022-10-31T05:28:08;14.77;56.01
71839;SHT31;59687;37.520;15.068;2022-10-31T05:30:36;14.91;56.14
71839;SHT31;59687;37.520;15.068;2022-10-31T05:33:08;15.15;55.83
71839;SHT31;59687;37.520;15.068;2022-10-31T05:35:41;15.46;55.05
71839;SHT31;59687;37.520;15.068;2022-10-31T05:38:37;15.95;53.67
71839;SHT31;59687;37.520;15.068;2022-10-31T05:41:12;16.40;52.51
71839;SHT31;59687;37.520;15.068;2022-10-31T05:43:45;16.93;51.39
71839;SHT31;59687;37.520;15.068;2022-10-31T05:46:15;17.48;49.72
71839;SHT31;59687;37.520;15.068;2022-10-31T05:49:05;18.12;48.34
71839;SHT31;59687;37.520;15.068;2022-10-31T05:52:11;18.81;46.95
71839;SHT31;59687;37.520;15.068;2022-10-31T05:54:49;19.46;45.69
71839;SHT31;59687;37.520;15.068;2022-10-31T05:57:20;20.05;44.29
71839;SHT31;59687;37.520;15.068;2022-10-31T05:59:47;20.62;43.24
71839;SHT31;59687;37.520;15.068;2022-10-31T06:02:21;21.11;42.17
71839;SHT31;59687;37.520;15.068;2022-10-31T06:05:17;21.72;41.23
71839;SHT31;59687;37.520;15.068;2022-10-31T06:07:45;22.20;39.74
71839;SHT31;59687;37.520;15.068;2022-10-31T06:10:13;22.68;39.51
71839;SHT31;59687;37.520;15.068;2022-10-31T06:12:42;23.08;38.94
71839;SHT31;59687;37.520;15.068;2022-10-31T06:15:16;23.59;37.72
71839;SHT31;59687;37.520;15.068;2022-10-31T06:17:47;24.04;37.39
71839;SHT31;59687;37.520;15.068;2022-10-31T06:20:25;24.58;36.65
71839;SHT31;59687;37.520;15.068;2022-10-31T06:22:57;24.94;36.66
71839;SHT31;59687;37.520;15.068;2022-10-31T06:25:25;25.23;35.58
71839;SHT31;59687;37.520;15.068;2022-10-31T06:27:53;25.63;35.26
71839;SHT31;59687;37.520;15.068;2022-10-31T06:30:25;26.11;34.59
71839;SHT31;59687;37.520;15.068;2022-10-31T06:32:52;26.49;34.39
71839;SHT31;59687;37.520;15.068;2022-10-31T06:35:20;26.91;34.22
71839;SHT31;59687;37.520;15.068;2022-10-31T06:37:53;27.31;33.06
71839;SHT31;59687;37.520;15.068;2022-10-31T06:40:37;27.71;32.67
71839;SHT31;59687;37.520;15.068;2022-10-31T06:43:21;28.17;32.63
71839;SHT31;59687;37.520;15.068;2022-10-31T06:46:02;28.63;31.65
71839;SHT31;59687;37.520;15.068;2022-10-31T06:48:41;28.89;31.46
71839;SHT31;59687;37.520;15.068;2022-10-31T06:51:19;29.11;30.64
71839;SHT31;59687;37.520;15.068;2022-10-31T06:53:49;29.43;30.56
71839;SHT31;59687;37.520;15.068;2022-10-31T06:56:17;29.78;29.98
71839;SHT31;59687;37.520;15.068;2022-10-31T06:58:48;30.15;30.08
71839;SHT31;59687;37.520;15.068;2022-10-31T07:01:22;30.55;28.95
71839;SHT31;59687;37.520;15.068;2022-10-31T07:03:50;30.72;28.92
71839;SHT31;59687;37.520;15.068;2022-10-31T07:06:17;30.67;30.34
71839;SHT31;59687;37.520;15.068;2022-10-31T07:08:46;30.31;31.18
71839;SHT31;59687;37.520;15.068;2022-10-31T07:11:13;30.10;34.76
71839;SHT31;59687;37.520;15.068;2022-10-31T07:13:41;29.98;33.45
71839;SHT31;59687;37.520;15.068;2022-10-31T07:16:08;29.91;32.43
71839;SHT31;59687;37.520;15.068;2022-10-31T07:18:43;29.81;32.85
71839;SHT31;59687;37.520;15.068;2022-10-31T07:21:11;29.86;32.20
71839;SHT31;59687;37.520;15.068;2022-10-31T07:23:39;29.63;32.49
71839;SHT31;59687;37.520;15.068;2022-10-31T07:26:41;29.48;32.27
71839;SHT31;59687;37.520;15.068;2022-10-31T07:29:09;29.29;32.48
71839;SHT31;59687;37.520;15.068;2022-10-31T07:31:37;29.29;32.45
71839;SHT31;59687;37.520;15.068;2022-10-31T07:34:12;29.52;30.12
71839;SHT31;59687;37.520;15.068;2022-10-31T07:36:54;29.45;31.92
71839;SHT31;59687;37.520;15.068;2022-10-31T07:39:21;29.25;31.99
71839;SHT31;59687;37.520;15.068;2022-10-31T07:41:49;29.11;32.27
71839;SHT31;59687;37.520;15.068;2022-10-31T07:44:18;29.36;29.85
71839;SHT31;59687;37.520;15.068;2022-10-31T07:47:05;29.52;30.05
71839;SHT31;59687;37.520;15.068;2022-10-31T07:49:51;30.12;29.69
71839;SHT31;59687;37.520;15.068;2022-10-31T07:53:25;29.94;29.70
71839;SHT31;59687;37.520;15.068;2022-10-31T07:56:11;30.22;29.44
71839;SHT31;59687;37.520;15.068;2022-10-31T07:58:46;30.67;28.77
71839;SHT31;59687;37.520;15.068;2022-10-31T08:01:13;31.52;27.89
71839;SHT31;59687;37.520;15.068;2022-10-31T08:03:49;31.86;26.22
71839;SHT31;59687;37.520;15.068;2022-10-31T08:06:43;32.05;25.85
71839;SHT31;59687;37.520;15.068;2022-10-31T08:09:25;32.42;25.84
71839;SHT31;59687;37.520;15.068;2022-10-31T08:11:53;32.33;26.10
71839;SHT31;59687;37.520;15.068;2022-10-31T08:14:21;32.02;25.28
71839;SHT31;59687;37.520;15.068;2022-10-31T08:16:52;31.70;25.89
71839;SHT31;59687;37.520;15.068;2022-10-31T08:19:22;31.25;25.97
71839;SHT31;59687;37.520;15.068;2022-10-31T08:21:53;31.02;25.86
71839;SHT31;59687;37.520;15.068;2022-10-31T08:24:21;31.35;25.56
71839;SHT31;59687;37.520;15.068;2022-10-31T08:26:51;32.21;25.03
71839;SHT31;59687;37.520;15.068;2022-10-31T08:29:18;31.90;25.02
71839;SHT31;59687;37.520;15.068;2022-10-31T08:31:46;31.58;24.53
71839;SHT31;59687;37.520;15.068;2022-10-31T08:34:33;31.83;24.53
71839;SHT31;59687;37.520;15.068;2022-10-31T08:37:19;32.90;23.14
71839;SHT31;59687;37.520;15.068;2022-10-31T08:39:52;33.12;22.66
71839;SHT31;59687;37.520;15.068;2022-10-31T08:42:21;33.07;22.65
71839;SHT31;59687;37.520;15.068;2022-10-31T08:44:48;34.36;22.32
71839;SHT31;59687;37.520;15.068;2022-10-31T08:47:17;35.05;21.69
71839;SHT31;59687;37.520;15.068;2022-10-31T08:49:44;35.80;20.30
71839;SHT31;59687;37.520;15.068;2022-10-31T08:52:13;36.00;20.01
71839;SHT31;59687;37.520;15.068;2022-10-31T08:54:45;37.37;18.86
71839;SHT31;59687;37.520;15.068;2022-10-31T08:57:38;36.94;18.44
71839;SHT31;59687;37.520;15.068;2022-10-31T09:00:10;36.35;18.90
71839;SHT31;59687;37.520;15.068;2022-10-31T09:03:01;38.25;17.97
71839;SHT31;59687;37.520;15.068;2022-10-31T09:05:32;38.20;18.49
71839;SHT31;59687;37.520;15.068;2022-10-31T09:08:01;37.27;19.12
71839;SHT31;59687;37.520;15.068;2022-10-31T09:10:31;37.66;19.08
71839;SHT31;59687;37.520;15.068;2022-10-31T09:13:10;36.45;19.82
71839;SHT31;59687;37.520;15.068;2022-10-31T09:16:10;37.11;19.34
71839;SHT31;59687;37.520;15.068;2022-10-31T09:18:37;37.27;19.06
71839;SHT31;59687;37.520;15.068;2022-10-31T09:21:04;36.25;20.06
71839;SHT31;59687;37.520;15.068;2022-10-31T09:23:32;35.76;20.24
71839;SHT31;59687;37.520;15.068;2022-10-31T09:26:01;34.88;20.99
71839;SHT31;59687;37.520;15.068;2022-10-31T09:28:31;33.91;21.65
71839;SHT31;59687;37.520;15.068;2022-10-31T09:31:07;32.70;22.95
71839;SHT31;59687;37.520;15.068;2022-10-31T09:33:46;32.43;23.84
71839;SHT31;59687;37.520;15.068;2022-10-31T09:36:31;32.14;23.50
71839;SHT31;59687;37.520;15.068;2022-10-31T09:38:58;32.15;23.34
71839;SHT31;59687;37.520;15.068;2022-10-31T09:52:24;37.45;18.60
71839;SHT31;59687;37.520;15.068;2022-10-31T09:57:35;39.21;17.12
71839;SHT31;59687;37.520;15.068;2022-10-31T10:00:04;40.21;16.40
71839;SHT31;59687;37.520;15.068;2022-10-31T10:02:47;40.66;16.23
71839;SHT31;59687;37.520;15.068;2022-10-31T10:05:22;40.25;16.74
71839;SHT31;59687;37.520;15.068;2022-10-31T10:22:54;40.41;16.10
71839;SHT31;59687;37.520;15.068;2022-10-31T10:25:23;41.48;15.60
71839;SHT31;59687;37.520;15.068;2022-10-31T10:28:18;42.10;15.25
71839;SHT31;59687;37.520;15.068;2022-10-31T10:30:56;42.24;15.35
71839;SHT31;59687;37.520;15.068;2022-10-31T10:33:59;42.62;15.02
71839;SHT31;59687;37.520;15.068;2022-10-31T10:36:57;43.55;15.03
71839;SHT31;59687;37.520;15.068;2022-10-31T10:39:35;45.81;13.76
71839;SHT31;59687;37.520;15.068;2022-10-31T10:42:15;48.64;12.42
71839;SHT31;59687;37.520;15.068;2022-10-31T10:45:14;47.50;12.75
71839;SHT31;59687;37.520;15.068;2022-10-31T10:48:06;48.40;12.27
71839;SHT31;59687;37.520;15.068;2022-10-31T10:50:41;48.75;12.11
71839;SHT31;59687;37.520;15.068;2022-10-31T10:55:55;47.30;12.58
71839;SHT31;59687;37.520;15.068;2022-10-31T10:58:24;46.09;13.33
71839;SHT31;59687;37.520;15.068;2022-10-31T11:00:53;44.34;14.04
71839;SHT31;59687;37.520;15.068;2022-10-31T11:03:24;43.55;14.68
71839;SHT31;59687;37.520;15.068;2022-10-31T11:05:56;43.86;14.69
71839;SHT31;59687;37.520;15.068;2022-10-31T11:08:30;45.89;13.63
71839;SHT31;59687;37.520;15.068;2022-10-31T11:11:23;45.38;13.94
71839;SHT31;59687;37.520;15.068;2022-10-31T11:13:52;44.98;14.58
71839;SHT31;59687;37.520;15.068;2022-10-31T11:16:40;44.98;16.78
71839;SHT31;59687;37.520;15.068;2022-10-31T11:19:25;43.55;16.86
71839;SHT31;59687;37.520;15.068;2022-10-31T11:21:53;42.72;17.70
71839;SHT31;59687;37.520;15.068;2022-10-31T11:24:24;40.82;18.88
71839;SHT31;59687;37.520;15.068;2022-10-31T11:27:12;39.69;19.98
71839;SHT31;59687;37.520;15.068;2022-10-31T11:29:40;39.00;20.10
71839;SHT31;59687;37.520;15.068;2022-10-31T11:32:21;38.55;20.07
71839;SHT31;59687;37.520;15.068;2022-10-31T11:34:58;38.16;20.76
71839;SHT31;59687;37.520;15.068;2022-10-31T11:37:32;38.76;20.09
71839;SHT31;59687;37.520;15.068;2022-10-31T11:40:48;39.69;19.54
71839;SHT31;59687;37.520;15.068;2022-10-31T11:42:57;39.54;19.93
71839;SHT31;59687;37.520;15.068;2022-10-31T11:45:33;38.28;20.49
71839;SHT31;59687;37.520;15.068;2022-10-31T11:48:01;38.82;20.43
71839;SHT31;59687;37.520;15.068;2022-10-31T11:50:38;39.56;19.45
71839;SHT31;59687;37.520;15.068;2022-10-31T11:53:16;38.82;19.57
71839;SHT31;59687;37.520;15.068;2022-10-31T11:55:47;37.97;20.39
71839;SHT31;59687;37.520;15.068;2022-10-31T11:58:25;39.10;20.14
71839;SHT31;59687;37.520;15.068;2022-10-31T12:00:55;40.87;18.27
71839;SHT31;59687;37.520;15.068;2022-10-31T12:06:13;40.31;18.93
71839;SHT31;59687;37.520;15.068;2022-10-31T12:08:45;41.11;18.51
71839;SHT31;59687;37.520;15.068;2022-10-31T12:11:35;41.39;18.35
71839;SHT31;59687;37.520;15.068;2022-10-31T12:14:28;41.71;18.42
71839;SHT31;59687;37.520;15.068;2022-10-31T12:17:15;40.59;19.20
71839;SHT31;59687;37.520;15.068;2022-10-31T12:30:59;39.97;20.43
71839;SHT31;59687;37.520;15.068;2022-10-31T12:33:37;39.37;21.07
71839;SHT31;59687;37.520;15.068;2022-10-31T12:41:47;39.94;20.56
71839;SHT31;59687;37.520;15.068;2022-10-31T12:49:48;37.54;22.99
71839;SHT31;59687;37.520;15.068;2022-10-31T12:58:01;38.86;21.54
71839;SHT31;59687;37.520;15.068;2022-10-31T13:00:31;39.09;21.68
71839;SHT31;59687;37.520;15.068;2022-10-31T13:03:23;39.70;21.20
71839;SHT31;59687;37.520;15.068;2022-10-31T13:06:02;39.61;21.30
71839;SHT31;59687;37.520;15.068;2022-10-31T13:08:47;39.21;21.32
71839;SHT31;59687;37.520;15.068;2022-10-31T13:11:35;38.44;21.83
71839;SHT31;59687;37.520;15.068;2022-10-31T13:16:41;36.41;24.29
71839;SHT31;59687;37.520;15.068;2022-10-31T13:24:30;36.00;24.93
71839;SHT31;59687;37.520;15.068;2022-10-31T13:27:08;35.31;25.85
71839;SHT31;59687;37.520;15.068;2022-10-31T13:29:42;34.66;26.44
71839;SHT31;59687;37.520;15.068;2022-10-31T13:32:10;35.00;26.57
71839;SHT31;59687;37.520;15.068;2022-10-31T13:34:47;34.62;26.47
71839;SHT31;59687;37.520;15.068;2022-10-31T13:37:41;34.93;26.53
71839;SHT31;59687;37.520;15.068;2022-10-31T13:40:57;34.29;26.68
71839;SHT31;59687;37.520;15.068;2022-10-31T13:45:31;32.98;28.14
71839;SHT31;59687;37.520;15.068;2022-10-31T13:50:43;32.18;29.13
71839;SHT31;59687;37.520;15.068;2022-10-31T13:53:23;32.11;29.91
71839;SHT31;59687;37.520;15.068;2022-10-31T13:58:35;32.29;30.19
71839;SHT31;59687;37.520;15.068;2022-10-31T14:03:43;31.98;30.14
71839;SHT31;59687;37.520;15.068;2022-10-31T14:06:56;32.31;29.52
71839;SHT31;59687;37.520;15.068;2022-10-31T14:12:03;32.73;29.17
71839;SHT31;59687;37.520;15.068;2022-10-31T14:14:35;32.77;28.65
71839;SHT31;59687;37.520;15.068;2022-10-31T14:17:03;33.01;28.43
71839;SHT31;59687;37.520;15.068;2022-10-31T14:19:30;32.77;28.78
71839;SHT31;59687;37.520;15.068;2022-10-31T14:21:58;32.74;28.30
71839;SHT31;59687;37.520;15.068;2022-10-31T14:26:54;32.04;29.17
71839;SHT31;59687;37.520;15.068;2022-10-31T14:29:35;31.67;30.15
71839;SHT31;59687;37.520;15.068;2022-10-31T14:34:53;31.19;30.47
71839;SHT31;59687;37.520;15.068;2022-10-31T14:40:20;30.32;31.22
71839;SHT31;59687;37.520;15.068;2022-10-31T14:46:35;29.77;33.01
71839;SHT31;59687;37.520;15.068;2022-10-31T14:52:01;28.27;35.80
71839;SHT31;59687;37.520;15.068;2022-10-31T14:54:35;27.65;37.66
71839;SHT31;59687;37.520;15.068;2022-10-31T14:57:06;27.31;39.12
71839;SHT31;59687;37.520;15.068;2022-10-31T14:59:37;27.42;39.18
71839;SHT31;59687;37.520;15.068;2022-10-31T15:04:53;27.46;39.46
71839;SHT31;59687;37.520;15.068;2022-10-31T15:07:25;27.37;40.12
71839;SHT31;59687;37.520;15.068;2022-10-31T15:09:58;27.08;41.25
71839;SHT31;59687;37.520;15.068;2022-10-31T15:15:10;26.52;43.53
71839;SHT31;59687;37.520;15.068;2022-10-31T15:17:45;26.66;43.44
71839;SHT31;59687;37.520;15.068;2022-10-31T15:20:24;26.82;43.24
71839;SHT31;59687;37.520;15.068;2022-10-31T15:22:55;26.89;43.58
71839;SHT31;59687;37.520;15.068;2022-10-31T15:25:25;26.72;44.09
71839;SHT31;59687;37.520;15.068;2022-10-31T15:27:52;26.41;45.22
71839;SHT31;59687;37.520;15.068;2022-10-31T15:30:25;26.20;45.83
71839;SHT31;59687;37.520;15.068;2022-10-31T15:32:52;26.07;46.09
71839;SHT31;59687;37.520;15.068;2022-10-31T15:35:29;26.00;46.37
71839;SHT31;59687;37.520;15.068;2022-10-31T15:37:58;25.87;46.80
71839;SHT31;59687;37.520;15.068;2022-10-31T15:40:26;25.75;47.05
71839;SHT31;59687;37.520;15.068;2022-10-31T15:42:56;25.55;47.73
71839;SHT31;59687;37.520;15.068;2022-10-31T15:45:25;25.28;48.38
71839;SHT31;59687;37.520;15.068;2022-10-31T15:48:00;24.96;49.13
71839;SHT31;59687;37.520;15.068;2022-10-31T15:50:36;24.61;50.04
71839;SHT31;59687;37.520;15.068;2022-10-31T15:53:19;24.20;50.92
71839;SHT31;59687;37.520;15.068;2022-10-31T15:55:52;23.79;52.02
71839;SHT31;59687;37.520;15.068;2022-10-31T15:58:20;23.47;53.01
71839;SHT31;59687;37.520;15.068;2022-10-31T16:01:03;23.20;53.81
71839;SHT31;59687;37.520;15.068;2022-10-31T16:03:33;22.89;54.77
71839;SHT31;59687;37.520;15.068;2022-10-31T16:06:04;22.66;55.54
71839;SHT31;59687;37.520;15.068;2022-10-31T16:08:36;22.44;56.30
71839;SHT31;59687;37.520;15.068;2022-10-31T16:13:36;22.10;57.30
71839;SHT31;59687;37.520;15.068;2022-10-31T16:16:12;21.93;57.99
71839;SHT31;59687;37.520;15.068;2022-10-31T16:19:00;21.78;58.79
71839;SHT31;59687;37.520;15.068;2022-10-31T16:21:34;21.75;59.20
71839;SHT31;59687;37.520;15.068;2022-10-31T16:24:05;21.72;59.37
71839;SHT31;59687;37.520;15.068;2022-10-31T16:26:40;21.66;59.38
71839;SHT31;59687;37.520;15.068;2022-10-31T16:29:25;21.62;59.31
71839;SHT31;59687;37.520;15.068;2022-10-31T16:31:52;21.54;59.55
71839;SHT31;59687;37.520;15.068;2022-10-31T16:34:21;21.44;59.94
71839;SHT31;59687;37.520;15.068;2022-10-31T16:36:51;21.37;60.24
71839;SHT31;59687;37.520;15.068;2022-10-31T16:39:18;21.30;60.52
71839;SHT31;59687;37.520;15.068;2022-10-31T16:41:50;21.23;60.71
71839;SHT31;59687;37.520;15.068;2022-10-31T16:44:24;21.14;61.13
71839;SHT31;59687;37.520;15.068;2022-10-31T16:47:12;21.10;61.54
71839;SHT31;59687;37.520;15.068;2022-10-31T16:49:44;21.03;61.67
71839;SHT31;59687;37.520;15.068;2022-10-31T16:52:12;21.06;61.76
71839;SHT31;59687;37.520;15.068;2022-10-31T16:54:40;21.03;61.99
71839;SHT31;59687;37.520;15.068;2022-10-31T16:57:13;21.03;61.92
71839;SHT31;59687;37.520;15.068;2022-10-31T16:59:41;21.00;61.88
71839;SHT31;59687;37.520;15.068;2022-10-31T17:02:15;20.89;62.32
71839;SHT31;59687;37.520;15.068;2022-10-31T17:04:43;20.83;62.64
71839;SHT31;59687;37.520;15.068;2022-10-31T17:07:10;20.82;62.88
71839;SHT31;59687;37.520;15.068;2022-10-31T17:09:37;20.73;62.82
71839;SHT31;59687;37.520;15.068;2022-10-31T17:12:06;20.65;62.85
71839;SHT31;59687;37.520;15.068;2022-10-31T17:14:34;20.64;62.85
71839;SHT31;59687;37.520;15.068;2022-10-31T17:17:02;20.56;63.33
71839;SHT31;59687;37.520;15.068;2022-10-31T17:19:29;20.48;63.68
71839;SHT31;59687;37.520;15.068;2022-10-31T17:21:56;20.43;64.16
71839;SHT31;59687;37.520;15.068;2022-10-31T17:24:23;20.62;63.44
71839;SHT31;59687;37.520;15.068;2022-10-31T17:26:51;20.65;62.93
71839;SHT31;59687;37.520;15.068;2022-10-31T17:29:18;20.73;62.55
71839;SHT31;59687;37.520;15.068;2022-10-31T17:31:45;20.89;62.06
71839;SHT31;59687;37.520;15.068;2022-10-31T17:34:13;20.68;62.35
71839;SHT31;59687;37.520;15.068;2022-10-31T17:36:40;20.55;62.52
71839;SHT31;59687;37.520;15.068;2022-10-31T17:39:09;20.47;62.94
71839;SHT31;59687;37.520;15.068;2022-10-31T17:41:36;20.40;63.11
71839;SHT31;59687;37.520;15.068;2022-10-31T17:44:04;20.31;63.28
71839;SHT31;59687;37.520;15.068;2022-10-31T17:46:30;20.20;63.42
71839;SHT31;59687;37.520;15.068;2022-10-31T17:48:57;20.18;63.69
71839;SHT31;59687;37.520;15.068;2022-10-31T17:51:27;20.07;63.94
71839;SHT31;59687;37.520;15.068;2022-10-31T17:53:56;20.00;64.07
71839;SHT31;59687;37.520;15.068;2022-10-31T17:56:25;19.92;64.21
71839;SHT31;59687;37.520;15.068;2022-10-31T17:58:53;19.86;64.31
71839;SHT31;59687;37.520;15.068;2022-10-31T18:01:22;19.79;63.60
71839;SHT31;59687;37.520;15.068;2022-10-31T18:03:49;19.75;63.40
71839;SHT31;59687;37.520;15.068;2022-10-31T18:06:18;19.69;63.17
71839;SHT31;59687;37.520;15.068;2022-10-31T18:08:45;19.65;62.78
71839;SHT31;59687;37.520;15.068;2022-10-31T18:11:15;19.58;62.60
71839;SHT31;59687;37.520;15.068;2022-10-31T18:13:43;19.54;62.35
71839;SHT31;59687;37.520;15.068;2022-10-31T18:16:14;19.53;62.02
71839;SHT31;59687;37.520;15.068;2022-10-31T18:18:42;19.50;61.77